createdAt,value
2024-02-08T00:00:09.776Z,12.39
2024-02-08T00:00:31.425Z,12.30
2024-02-08T00:00:54.206Z,12.22
2024-02-08T00:01:15.967Z,12.19
2024-02-08T00:01:37.734Z,12.18
2024-02-08T00:01:59.459Z,12.21
2024-02-08T00:02:22.144Z,12.28
2024-02-08T00:02:43.862Z,12.24
2024-02-08T00:03:08.948Z,12.31
2024-02-08T00:03:30.589Z,12.34
2024-02-08T00:03:52.275Z,12.33
2024-02-08T00:04:14.917Z,12.41
2024-02-08T00:04:38.281Z,12.43
2024-02-08T00:05:00.242Z,12.43
2024-02-08T00:05:21.937Z,12.45
2024-02-08T00:05:43.990Z,12.49
2024-02-08T00:06:07.065Z,12.51
2024-02-08T00:06:33.465Z,12.51
2024-02-08T00:06:55.278Z,12.55
2024-02-08T00:07:16.983Z,12.59
2024-02-08T00:07:38.639Z,12.56
2024-02-08T00:08:00.329Z,12.53
2024-02-08T00:08:22.920Z,12.60
2024-02-08T00:08:44.518Z,12.61
2024-02-08T00:09:07.320Z,12.55
2024-02-08T00:09:30.307Z,12.64
2024-02-08T00:09:52.177Z,12.48
2024-02-08T00:10:14.876Z,12.71
2024-02-08T00:10:36.741Z,12.71
2024-02-08T00:10:58.472Z,12.68
2024-02-08T00:11:20.375Z,12.66
2024-02-08T00:11:42.016Z,12.63
2024-02-08T00:12:05.179Z,12.65
2024-02-08T00:12:26.838Z,12.53
2024-02-08T00:12:49.114Z,12.65
2024-02-08T00:13:14.209Z,12.50
2024-02-08T00:13:36.991Z,12.50
2024-02-08T00:13:58.769Z,12.54
2024-02-08T00:14:20.400Z,12.54
2024-02-08T00:14:42.113Z,12.57
2024-02-08T00:15:04.166Z,12.55
2024-02-08T00:15:30.339Z,12.60
2024-02-08T00:15:52.008Z,12.61
2024-02-08T00:16:13.716Z,12.60
2024-02-08T00:16:38.284Z,12.53
2024-02-08T00:17:00.017Z,12.55
2024-02-08T00:17:22.626Z,12.60
2024-02-08T00:17:44.635Z,12.63
2024-02-08T00:18:06.782Z,12.67
2024-02-08T00:18:28.816Z,12.71
2024-02-08T00:18:50.641Z,12.71
2024-02-08T00:19:16.856Z,12.74
2024-02-08T00:19:38.660Z,12.69
2024-02-08T00:20:00.298Z,12.65
2024-02-08T00:20:21.949Z,12.75
2024-02-08T00:20:43.570Z,12.78
2024-02-08T00:21:05.543Z,12.77
2024-02-08T00:21:29.012Z,12.78
2024-02-08T00:21:51.382Z,12.77
2024-02-08T00:22:13.034Z,12.76
2024-02-08T00:22:34.844Z,12.76
2024-02-08T00:22:56.638Z,12.81
2024-02-08T00:23:18.907Z,12.81
2024-02-08T00:23:41.524Z,12.83
2024-02-08T00:24:03.583Z,12.82
2024-02-08T00:24:25.279Z,12.87
2024-02-08T00:24:48.506Z,12.89
2024-02-08T00:25:11.183Z,12.90
2024-02-08T00:25:32.848Z,12.94
2024-02-08T00:25:56.332Z,12.97
2024-02-08T00:26:18.450Z,12.95
2024-02-08T00:26:42.787Z,12.95
2024-02-08T00:27:04.930Z,12.97
2024-02-08T00:27:27.487Z,12.94
2024-02-08T00:27:49.220Z,12.95
2024-02-08T00:28:12.804Z,12.94
2024-02-08T00:28:34.671Z,12.97
2024-02-08T00:28:56.416Z,12.94
2024-02-08T00:29:19.017Z,12.98
2024-02-08T00:29:44.781Z,12.98
2024-02-08T00:30:07.552Z,12.93
2024-02-08T00:30:29.301Z,12.91
2024-02-08T00:30:51.496Z,12.96
2024-02-08T00:31:14.070Z,12.97
2024-02-08T00:31:35.772Z,12.87
2024-02-08T00:31:57.467Z,12.98
2024-02-08T00:32:20.374Z,13.01
2024-02-08T00:32:42.016Z,12.86
2024-02-08T00:33:04.093Z,12.80
2024-02-08T00:33:26.787Z,12.84
2024-02-08T00:33:49.473Z,12.83
2024-02-08T00:34:12.230Z,12.86
2024-02-08T00:34:33.981Z,12.80
2024-02-08T00:34:56.342Z,12.78
2024-02-08T00:35:19.129Z,12.77
2024-02-08T00:35:42.191Z,12.76
2024-02-08T00:36:04.288Z,12.73
2024-02-08T00:36:25.940Z,12.72
2024-02-08T00:36:50.246Z,12.74
2024-02-08T00:37:12.023Z,12.68
2024-02-08T00:37:33.648Z,12.74
2024-02-08T00:37:56.347Z,12.76
2024-02-08T00:38:18.103Z,12.73
2024-02-08T00:38:39.888Z,12.74
2024-02-08T00:39:08.234Z,12.72
2024-02-08T00:39:30.167Z,12.72
2024-02-08T00:39:53.157Z,12.76
2024-02-08T00:40:16.113Z,12.74
2024-02-08T00:40:37.804Z,12.66
2024-02-08T00:40:59.503Z,12.66
2024-02-08T00:41:25.079Z,12.68
2024-02-08T00:41:49.086Z,12.48
2024-02-08T00:42:13.269Z,12.48
2024-02-08T00:42:34.885Z,12.51
2024-02-08T00:42:56.992Z,12.58
2024-02-08T00:43:21.004Z,12.60
2024-02-08T00:43:42.711Z,12.54
2024-02-08T00:44:05.103Z,12.64
2024-02-08T00:44:28.924Z,12.68
2024-02-08T00:44:51.272Z,12.69
2024-02-08T00:45:13.196Z,12.64
2024-02-08T00:45:34.967Z,12.55
2024-02-08T00:45:56.566Z,12.63
2024-02-08T00:46:20.623Z,12.61
2024-02-08T00:46:42.266Z,12.60
2024-02-08T00:47:06.517Z,12.51
2024-02-08T00:47:29.418Z,12.60
2024-02-08T00:47:51.765Z,12.52
2024-02-08T00:48:14.601Z,12.56
2024-02-08T00:48:36.268Z,12.57
2024-02-08T00:48:58.008Z,12.55
2024-02-08T00:49:19.745Z,12.59
2024-02-08T00:49:41.796Z,12.60
2024-02-08T00:50:05.136Z,12.62
2024-02-08T00:50:27.004Z,12.62
2024-02-08T00:50:48.675Z,12.64
2024-02-08T00:51:10.368Z,12.66
2024-02-08T00:51:32.451Z,12.69
2024-02-08T00:51:55.274Z,12.68
2024-02-08T00:52:19.544Z,12.65
2024-02-08T00:52:42.176Z,12.71
2024-02-08T00:53:06.871Z,12.69
2024-02-08T00:53:28.514Z,12.72
2024-02-08T00:53:51.110Z,12.66
2024-02-08T00:54:12.717Z,12.47
2024-02-08T00:54:34.715Z,12.53
2024-02-08T00:54:57.662Z,12.53
2024-02-08T00:55:19.314Z,12.36
2024-02-08T00:55:44.983Z,12.34
2024-02-08T00:56:11.180Z,12.43
2024-02-08T00:56:35.366Z,12.48
2024-02-08T00:56:56.955Z,12.51
2024-02-08T00:57:18.562Z,12.53
2024-02-08T00:57:40.146Z,12.54
2024-02-08T00:58:03.401Z,12.52
2024-02-08T00:58:26.088Z,12.48
2024-02-08T00:58:48.199Z,12.49
2024-02-08T00:59:09.946Z,12.49
2024-02-08T00:59:31.594Z,12.50
2024-02-08T00:59:53.195Z,12.49
2024-02-08T01:00:16.955Z,12.50
2024-02-08T01:00:39.873Z,12.50
2024-02-08T01:01:02.253Z,12.46
2024-02-08T01:01:24.645Z,12.51
2024-02-08T01:01:46.356Z,12.50
2024-02-08T01:02:08.432Z,12.50
2024-02-08T01:02:30.220Z,12.53
2024-02-08T01:02:52.768Z,12.58
2024-02-08T01:03:14.855Z,12.61
2024-02-08T01:03:37.319Z,12.54
2024-02-08T01:03:59.166Z,12.63
2024-02-08T01:04:22.404Z,12.64
2024-02-08T01:04:49.785Z,12.60
2024-02-08T01:05:12.573Z,12.59
2024-02-08T01:05:34.397Z,12.55
2024-02-08T01:05:56.035Z,12.52
2024-02-08T01:06:17.784Z,12.55
2024-02-08T01:06:41.650Z,12.48
2024-02-08T01:07:04.908Z,12.51
2024-02-08T01:07:26.979Z,12.59
2024-02-08T01:07:48.686Z,12.60
2024-02-08T01:08:10.360Z,12.64
2024-02-08T01:08:34.516Z,12.67
2024-02-08T01:08:56.140Z,12.67
2024-02-08T01:09:18.910Z,12.70
2024-02-08T01:09:40.522Z,12.65
2024-02-08T01:10:08.183Z,12.67
2024-02-08T01:10:30.108Z,12.71
2024-02-08T01:10:51.855Z,12.72
2024-02-08T01:11:14.554Z,12.74
2024-02-08T01:11:36.287Z,12.77
2024-02-08T01:11:59.014Z,12.79
2024-02-08T01:12:20.636Z,12.79
2024-02-08T01:12:44.173Z,12.81
2024-02-08T01:13:06.776Z,12.79
2024-02-08T01:13:29.457Z,12.78
2024-02-08T01:13:53.282Z,12.82
2024-02-08T01:14:15.011Z,12.78
2024-02-08T01:14:36.659Z,12.79
2024-02-08T01:14:59.231Z,12.78
2024-02-08T01:15:21.041Z,12.72
2024-02-08T01:15:43.136Z,12.61
2024-02-08T01:16:05.439Z,12.73
2024-02-08T01:16:31.353Z,12.76
2024-02-08T01:16:55.384Z,12.80
2024-02-08T01:17:17.316Z,12.79
2024-02-08T01:17:39.167Z,12.75
2024-02-08T01:18:02.592Z,12.75
2024-02-08T01:18:24.442Z,12.72
2024-02-08T01:18:46.107Z,12.78
2024-02-08T01:19:08.802Z,12.81
2024-02-08T01:19:32.247Z,12.75
2024-02-08T01:19:54.025Z,12.74
2024-02-08T01:20:22.672Z,12.75
2024-02-08T01:20:44.664Z,12.72
2024-02-08T01:21:07.285Z,12.74
2024-02-08T01:21:31.399Z,12.77
2024-02-08T01:21:54.049Z,12.78
2024-02-08T01:22:20.563Z,12.80
2024-02-08T01:22:43.172Z,12.84
2024-02-08T01:23:05.733Z,12.83
2024-02-08T01:23:29.337Z,12.79
2024-02-08T01:23:50.929Z,12.79
2024-02-08T01:24:19.167Z,12.71
2024-02-08T01:24:40.829Z,12.76
2024-02-08T01:25:04.308Z,12.79
2024-02-08T01:25:25.967Z,12.79
2024-02-08T01:25:48.347Z,12.78
2024-02-08T01:26:10.633Z,12.79
2024-02-08T01:26:33.412Z,12.79
2024-02-08T01:26:55.615Z,12.78
2024-02-08T01:27:21.332Z,12.78
2024-02-08T01:27:44.671Z,12.77
2024-02-08T01:28:08.217Z,12.82
2024-02-08T01:28:30.865Z,12.81
2024-02-08T01:28:55.558Z,12.82
2024-02-08T01:29:18.152Z,12.84
2024-02-08T01:29:39.809Z,12.86
2024-02-08T01:30:08.157Z,12.84
2024-02-08T01:30:30.773Z,12.86
2024-02-08T01:30:53.711Z,12.85
2024-02-08T01:31:15.414Z,12.90
2024-02-08T01:32:06.943Z,12.88
2024-02-08T01:32:29.348Z,12.93
2024-02-08T01:32:54.247Z,12.92
2024-02-08T01:33:15.922Z,12.89
2024-02-08T01:33:38.328Z,12.91
2024-02-08T01:34:01.295Z,12.79
2024-02-08T01:34:25.220Z,12.96
2024-02-08T01:34:48.197Z,12.97
2024-02-08T01:35:12.115Z,12.99
2024-02-08T01:35:34.046Z,12.99
2024-02-08T01:35:55.674Z,12.96
2024-02-08T01:36:17.402Z,12.93
2024-02-08T01:36:41.021Z,12.97
2024-02-08T01:37:04.832Z,12.95
2024-02-08T01:37:27.006Z,12.98
2024-02-08T01:37:48.680Z,13.01
2024-02-08T01:38:10.408Z,13.01
2024-02-08T01:38:32.049Z,13.01
2024-02-08T01:38:54.665Z,13.00
2024-02-08T01:39:23.985Z,13.00
2024-02-08T01:39:45.718Z,13.03
2024-02-08T01:40:17.407Z,12.93
2024-02-08T01:40:41.267Z,13.06
2024-02-08T01:41:07.211Z,13.05
2024-02-08T01:41:29.108Z,13.09
2024-02-08T01:41:51.024Z,13.08
2024-02-08T01:42:13.119Z,13.09
2024-02-08T01:42:35.718Z,13.08
2024-02-08T01:42:58.425Z,13.09
2024-02-08T01:43:20.911Z,13.11
2024-02-08T01:43:43.520Z,13.08
2024-02-08T01:44:08.811Z,13.10
2024-02-08T01:44:30.476Z,13.08
2024-02-08T01:45:08.192Z,13.11
2024-02-08T01:45:31.461Z,13.12
2024-02-08T01:45:55.467Z,13.11
2024-02-08T01:46:17.732Z,13.13
2024-02-08T01:46:39.756Z,13.11
2024-02-08T01:47:01.519Z,13.12
2024-02-08T01:47:23.539Z,13.13
2024-02-08T01:47:48.806Z,12.97
2024-02-08T01:48:18.035Z,12.75
2024-02-08T01:48:46.073Z,12.82
2024-02-08T01:49:09.463Z,12.72
2024-02-08T01:49:33.101Z,12.58
2024-02-08T01:49:54.926Z,12.52
2024-02-08T01:50:16.912Z,12.49
2024-02-08T01:50:50.083Z,12.51
2024-02-08T01:51:14.152Z,12.49
2024-02-08T01:51:39.132Z,12.53
2024-02-08T01:52:01.825Z,12.52
2024-02-08T01:52:24.759Z,12.48
2024-02-08T01:52:59.298Z,12.33
2024-02-08T01:53:28.645Z,12.25
2024-02-08T01:53:51.005Z,12.26
2024-02-08T01:54:13.716Z,12.32
2024-02-08T01:54:35.447Z,12.36
2024-02-08T01:54:58.434Z,12.30
2024-02-08T01:55:22.147Z,12.25
2024-02-08T01:55:50.791Z,12.20
2024-02-08T01:56:13.488Z,12.27
2024-02-08T01:56:38.023Z,12.27
2024-02-08T01:57:02.617Z,12.30
2024-02-08T01:57:24.391Z,12.32
2024-02-08T01:57:51.510Z,12.29
2024-02-08T01:58:16.108Z,12.32
2024-02-08T01:58:45.195Z,12.37
2024-02-08T01:59:39.282Z,12.35
2024-02-08T02:00:14.103Z,12.31
2024-02-08T02:00:50.708Z,12.31
2024-02-08T02:01:14.240Z,12.30
2024-02-08T02:01:39.237Z,12.35
2024-02-08T02:02:03.061Z,12.40
2024-02-08T02:02:28.388Z,12.37
2024-02-08T02:02:54.827Z,12.39
2024-02-08T02:03:17.535Z,12.42
2024-02-08T02:03:42.714Z,12.48
2024-02-08T02:04:08.998Z,12.42
2024-02-08T02:04:31.503Z,12.52
2024-02-08T02:04:53.575Z,12.53
2024-02-08T02:05:19.010Z,12.59
2024-02-08T02:05:43.826Z,12.61
2024-02-08T02:06:09.243Z,12.62
2024-02-08T02:06:30.992Z,12.65
2024-02-08T02:06:52.800Z,12.66
2024-02-08T02:07:14.484Z,12.67
2024-02-08T02:07:36.663Z,12.69
2024-02-08T02:08:00.127Z,12.63
2024-02-08T02:08:24.937Z,12.74
2024-02-08T02:08:54.642Z,12.75
2024-02-08T02:09:25.116Z,12.78
2024-02-08T02:09:48.078Z,12.77
2024-02-08T02:10:10.404Z,12.69
2024-02-08T02:10:33.518Z,12.67
2024-02-08T02:11:02.252Z,12.67
2024-02-08T02:11:30.146Z,12.66
2024-02-08T02:11:57.150Z,12.68
2024-02-08T02:12:26.457Z,12.66
2024-02-08T02:12:49.705Z,12.63
2024-02-08T02:13:11.852Z,12.68
2024-02-08T02:13:35.455Z,12.70
2024-02-08T02:13:59.308Z,12.72
2024-02-08T02:14:30.106Z,12.75
2024-02-08T02:14:54.214Z,12.74
2024-02-08T02:15:16.276Z,12.78
2024-02-08T02:15:39.157Z,12.79
2024-02-08T02:16:02.040Z,12.80
2024-02-08T02:16:24.413Z,12.80
2024-02-08T02:16:47.653Z,12.81
2024-02-08T02:17:12.980Z,12.78
2024-02-08T02:17:35.631Z,12.75
2024-02-08T02:17:57.320Z,12.75
2024-02-08T02:18:19.230Z,12.78
2024-02-08T02:18:41.154Z,12.80
2024-02-08T02:19:07.589Z,12.75
2024-02-08T02:19:29.307Z,12.83
2024-02-08T02:19:51.034Z,12.88
2024-02-08T02:20:14.101Z,12.86
2024-02-08T02:20:36.349Z,12.89
2024-02-08T02:20:58.236Z,12.85
2024-02-08T02:21:22.799Z,12.93
2024-02-08T02:21:45.575Z,12.92
2024-02-08T02:22:08.764Z,12.94
2024-02-08T02:22:33.173Z,12.81
2024-02-08T02:22:55.041Z,12.90
2024-02-08T02:23:20.044Z,12.89
2024-02-08T02:23:43.417Z,12.91
2024-02-08T02:24:05.794Z,12.94
2024-02-08T02:24:27.607Z,12.89
2024-02-08T02:24:49.713Z,12.93
2024-02-08T02:25:11.825Z,12.94
2024-02-08T02:25:33.485Z,12.93
2024-02-08T02:25:56.374Z,12.94
2024-02-08T02:26:19.738Z,12.93
2024-02-08T02:26:41.580Z,12.92
2024-02-08T02:27:05.892Z,12.84
2024-02-08T02:27:28.078Z,12.79
2024-02-08T02:27:54.266Z,12.80
2024-02-08T02:28:18.692Z,12.84
2024-02-08T02:28:41.242Z,12.61
2024-02-08T02:29:04.368Z,12.79
2024-02-08T02:29:27.838Z,12.82
2024-02-08T02:29:54.309Z,12.83
2024-02-08T02:30:17.519Z,12.84
2024-02-08T02:30:39.643Z,12.84
2024-02-08T02:31:07.010Z,12.83
2024-02-08T02:31:29.166Z,12.84
2024-02-08T02:31:52.985Z,12.84
2024-02-08T02:32:16.850Z,12.69
2024-02-08T02:32:39.441Z,12.69
2024-02-08T02:33:02.904Z,12.73
2024-02-08T02:33:26.526Z,12.66
2024-02-08T02:33:50.226Z,12.55
2024-02-08T02:34:12.001Z,12.47
2024-02-08T02:34:37.307Z,12.44
2024-02-08T02:34:59.178Z,12.45
2024-02-08T02:35:23.357Z,12.36
2024-02-08T02:35:54.578Z,12.29
2024-02-08T02:36:35.349Z,12.33
2024-02-08T02:37:13.453Z,12.36
2024-02-08T02:37:48.807Z,12.39
2024-02-08T02:38:19.617Z,12.23
2024-02-08T02:39:00.174Z,12.14
2024-02-08T02:39:27.072Z,11.92
2024-02-08T02:39:48.784Z,11.86
2024-02-08T02:40:10.506Z,11.89
2024-02-08T02:40:34.895Z,11.87
2024-02-08T02:40:56.662Z,11.86
2024-02-08T02:41:19.484Z,11.78
2024-02-08T02:41:41.447Z,11.86
2024-02-08T02:42:03.065Z,11.83
2024-02-08T02:42:26.539Z,11.86
2024-02-08T02:42:49.278Z,11.88
2024-02-08T02:43:11.396Z,11.86
2024-02-08T02:43:34.220Z,11.81
2024-02-08T02:43:56.025Z,11.88
2024-02-08T02:44:17.747Z,11.93
2024-02-08T02:44:40.337Z,11.99
2024-02-08T02:45:02.375Z,12.03
2024-02-08T02:45:24.789Z,12.07
2024-02-08T02:45:46.522Z,12.11
2024-02-08T02:46:08.212Z,12.13
2024-02-08T02:46:30.827Z,12.14
2024-02-08T02:46:52.469Z,12.18
2024-02-08T02:47:14.854Z,12.17
2024-02-08T02:47:38.036Z,12.06
2024-02-08T02:48:03.159Z,12.22
2024-02-08T02:48:26.350Z,12.27
2024-02-08T02:48:48.162Z,12.30
2024-02-08T02:49:10.725Z,12.30
2024-02-08T02:49:37.725Z,12.23
2024-02-08T02:49:59.846Z,12.34
2024-02-08T02:50:22.894Z,12.31
2024-02-08T02:50:45.089Z,12.35
2024-02-08T02:51:06.872Z,12.30
2024-02-08T02:51:31.953Z,12.34
2024-02-08T02:51:54.588Z,12.35
2024-02-08T02:52:16.196Z,12.37
2024-02-08T02:52:37.899Z,12.41
2024-02-08T02:52:59.655Z,12.44
2024-02-08T02:53:21.343Z,12.44
2024-02-08T02:53:43.954Z,12.40
2024-02-08T02:54:06.173Z,12.46
2024-02-08T02:54:31.813Z,12.49
2024-02-08T02:54:54.639Z,12.47
2024-02-08T02:55:16.322Z,12.54
2024-02-08T02:55:38.553Z,12.46
2024-02-08T02:56:01.309Z,12.59
2024-02-08T02:56:22.993Z,12.60
2024-02-08T02:56:48.477Z,12.52
2024-02-08T02:57:12.058Z,12.60
2024-02-08T02:57:37.065Z,12.62
2024-02-08T02:57:58.883Z,12.61
2024-02-08T02:58:21.507Z,12.63
2024-02-08T02:58:43.120Z,12.66
2024-02-08T02:59:04.880Z,12.66
2024-02-08T02:59:27.745Z,12.57
2024-02-08T02:59:49.450Z,12.64
2024-02-08T03:00:22.156Z,12.66
2024-02-08T03:00:45.649Z,12.67
2024-02-08T03:01:07.737Z,12.68
2024-02-08T03:01:34.888Z,12.70
2024-02-08T03:01:57.127Z,12.68
2024-02-08T03:02:29.236Z,12.67
2024-02-08T03:02:53.898Z,12.70
2024-02-08T03:03:16.830Z,12.72
2024-02-08T03:03:38.812Z,12.73
2024-02-08T03:04:00.893Z,12.74
2024-02-08T03:04:23.327Z,12.72
2024-02-08T03:04:46.099Z,12.70
2024-02-08T03:05:08.668Z,12.69
2024-02-08T03:05:32.049Z,12.61
2024-02-08T03:05:54.279Z,12.53
2024-02-08T03:06:17.279Z,12.53
2024-02-08T03:06:43.821Z,12.60
2024-02-08T03:07:07.629Z,12.61
2024-02-08T03:07:29.852Z,12.57
2024-02-08T03:07:52.792Z,12.63
2024-02-08T03:08:17.704Z,12.65
2024-02-08T03:08:42.378Z,12.65
2024-02-08T03:09:06.783Z,12.69
2024-02-08T03:09:29.445Z,12.65
2024-02-08T03:09:52.421Z,12.67
2024-02-08T03:10:14.533Z,12.66
2024-02-08T03:10:38.975Z,12.58
2024-02-08T03:11:00.861Z,12.52
2024-02-08T03:11:22.503Z,12.59
2024-02-08T03:11:45.860Z,12.63
2024-02-08T03:12:10.977Z,12.59
2024-02-08T03:12:33.896Z,12.67
2024-02-08T03:12:55.515Z,12.70
2024-02-08T03:13:17.199Z,12.66
2024-02-08T03:13:40.911Z,12.65
2024-02-08T03:14:09.145Z,12.63
2024-02-08T03:14:30.812Z,12.67
2024-02-08T03:14:59.067Z,12.68
2024-02-08T03:15:23.368Z,12.68
2024-02-08T03:15:44.955Z,12.66
2024-02-08T03:16:11.011Z,12.65
2024-02-08T03:16:37.416Z,12.70
2024-02-08T03:17:03.106Z,12.73
2024-02-08T03:17:24.925Z,12.69
2024-02-08T03:17:47.507Z,12.70
2024-02-08T03:18:10.275Z,12.73
2024-02-08T03:18:32.216Z,12.73
2024-02-08T03:18:53.951Z,12.77
2024-02-08T03:19:17.029Z,12.80
2024-02-08T03:19:39.227Z,12.78
2024-02-08T03:20:01.407Z,12.81
2024-02-08T03:20:25.777Z,12.79
2024-02-08T03:20:48.068Z,12.82
2024-02-08T03:21:10.019Z,12.83
2024-02-08T03:21:36.726Z,12.83
2024-02-08T03:22:00.386Z,12.79
2024-02-08T03:22:23.001Z,12.77
2024-02-08T03:22:45.354Z,12.68
2024-02-08T03:23:07.140Z,12.72
2024-02-08T03:23:28.761Z,12.74
2024-02-08T03:23:51.496Z,12.69
2024-02-08T03:24:14.778Z,12.67
2024-02-08T03:24:37.325Z,12.73
2024-02-08T03:24:59.369Z,12.71
2024-02-08T03:25:22.878Z,12.70
2024-02-08T03:25:44.668Z,12.67
2024-02-08T03:26:08.315Z,12.68
2024-02-08T03:26:30.765Z,12.70
2024-02-08T03:26:52.951Z,12.65
2024-02-08T03:27:14.658Z,12.64
2024-02-08T03:27:36.244Z,12.66
2024-02-08T03:27:58.929Z,12.60
2024-02-08T03:28:24.201Z,12.64
2024-02-08T03:28:47.331Z,12.63
2024-02-08T03:29:12.654Z,12.52
2024-02-08T03:29:35.614Z,12.63
2024-02-08T03:29:58.688Z,12.66
2024-02-08T03:30:24.126Z,12.66
2024-02-08T03:30:45.904Z,12.67
2024-02-08T03:31:10.162Z,12.64
2024-02-08T03:31:31.914Z,12.64
2024-02-08T03:31:53.663Z,12.61
2024-02-08T03:32:16.230Z,12.60
2024-02-08T03:32:38.155Z,12.60
2024-02-08T03:33:03.500Z,12.66
2024-02-08T03:33:25.170Z,12.69
2024-02-08T03:33:46.926Z,12.68
2024-02-08T03:34:10.028Z,12.70
2024-02-08T03:34:32.456Z,12.67
2024-02-08T03:34:55.044Z,12.64
2024-02-08T03:35:20.450Z,12.64
2024-02-08T03:35:44.494Z,12.69
2024-02-08T03:36:07.928Z,12.57
2024-02-08T03:36:30.593Z,12.70
2024-02-08T03:36:52.184Z,12.74
2024-02-08T03:37:15.126Z,12.77
2024-02-08T03:37:36.820Z,12.77
2024-02-08T03:38:01.963Z,12.71
2024-02-08T03:38:25.147Z,12.51
2024-02-08T03:38:48.384Z,12.72
2024-02-08T03:39:14.465Z,12.71
2024-02-08T03:39:36.656Z,12.70
2024-02-08T03:40:00.739Z,12.67
2024-02-08T03:40:22.821Z,12.70
2024-02-08T03:40:44.572Z,12.74
2024-02-08T03:41:06.333Z,12.73
2024-02-08T03:41:27.995Z,12.68
2024-02-08T03:41:49.582Z,12.58
2024-02-08T03:42:12.804Z,12.61
2024-02-08T03:42:36.462Z,12.63
2024-02-08T03:42:58.343Z,12.56
2024-02-08T03:43:24.462Z,12.54
2024-02-08T03:43:49.052Z,12.35
2024-02-08T03:44:13.362Z,12.29
2024-02-08T03:44:36.200Z,12.38
2024-02-08T03:45:01.791Z,12.41
2024-02-08T03:45:24.619Z,12.42
2024-02-08T03:45:47.859Z,12.40
2024-02-08T03:46:09.486Z,12.35
2024-02-08T03:46:32.869Z,12.39
2024-02-08T03:46:55.021Z,12.39
2024-02-08T03:47:18.234Z,12.26
2024-02-08T03:47:40.630Z,12.20
2024-02-08T03:48:02.587Z,12.27
2024-02-08T03:48:24.510Z,12.32
2024-02-08T03:48:47.422Z,12.36
2024-02-08T03:49:09.990Z,12.38
2024-02-08T03:49:32.614Z,12.43
2024-02-08T03:49:54.429Z,12.45
2024-02-08T03:50:16.334Z,12.49
2024-02-08T03:50:38.446Z,12.53
2024-02-08T03:51:02.098Z,12.56
2024-02-08T03:51:24.141Z,12.54
2024-02-08T03:51:48.163Z,12.56
2024-02-08T03:52:10.651Z,12.58
2024-02-08T03:52:33.699Z,12.61
2024-02-08T03:52:56.355Z,12.59
2024-02-08T03:53:19.288Z,12.58
2024-02-08T03:53:44.080Z,12.59
2024-02-08T03:54:09.748Z,12.60
2024-02-08T03:54:31.963Z,12.50
2024-02-08T03:54:55.159Z,12.61
2024-02-08T03:55:17.806Z,12.54
2024-02-08T03:55:40.196Z,12.56
2024-02-08T03:56:01.842Z,12.60
2024-02-08T03:56:27.713Z,12.64
2024-02-08T03:56:51.783Z,12.65
2024-02-08T03:57:14.052Z,12.63
2024-02-08T03:57:36.997Z,12.58
2024-02-08T03:58:01.465Z,12.55
2024-02-08T03:58:24.564Z,12.61
2024-02-08T03:58:47.785Z,12.64
2024-02-08T03:59:12.916Z,12.64
2024-02-08T03:59:34.825Z,12.61
2024-02-08T03:59:56.466Z,12.55
2024-02-08T04:00:29.045Z,12.57
2024-02-08T04:00:54.649Z,12.61
2024-02-08T04:01:21.266Z,12.64
2024-02-08T04:01:44.430Z,12.63
2024-02-08T04:02:06.647Z,12.59
2024-02-08T04:02:28.430Z,12.58
2024-02-08T04:02:51.258Z,12.52
2024-02-08T04:03:15.512Z,12.50
2024-02-08T04:03:53.892Z,12.53
2024-02-08T04:04:17.454Z,12.51
2024-02-08T04:04:55.364Z,12.49
2024-02-08T04:05:23.306Z,12.50
2024-02-08T04:06:00.875Z,12.51
2024-02-08T04:06:38.262Z,12.53
2024-02-08T04:07:20.331Z,12.60
2024-02-08T04:07:58.525Z,12.63
2024-02-08T04:08:33.799Z,12.67
2024-02-08T04:09:09.341Z,12.52
2024-02-08T04:09:38.033Z,12.67
2024-02-08T04:10:12.184Z,12.70
2024-02-08T04:10:48.769Z,12.66
2024-02-08T04:11:28.986Z,12.69
2024-02-08T04:12:09.345Z,12.70
2024-02-08T04:12:49.568Z,12.69
2024-02-08T04:13:44.512Z,12.71
2024-02-08T04:14:24.412Z,12.67
2024-02-08T04:15:04.564Z,12.60
2024-02-08T04:15:46.826Z,12.51
2024-02-08T04:16:27.058Z,12.52
2024-02-08T04:17:07.205Z,12.51
2024-02-08T04:17:47.380Z,12.56
2024-02-08T04:18:27.737Z,12.55
2024-02-08T04:19:08.230Z,12.59
2024-02-08T04:19:48.344Z,12.63
2024-02-08T04:20:28.460Z,12.63
2024-02-08T04:21:08.811Z,12.63
2024-02-08T04:21:49.193Z,12.65
2024-02-08T04:22:29.578Z,12.67
2024-02-08T04:23:11.207Z,12.64
2024-02-08T04:23:51.433Z,12.58
2024-02-08T04:24:46.339Z,12.60
2024-02-08T04:25:26.869Z,12.60
2024-02-08T04:26:12.340Z,12.66
2024-02-08T04:26:52.664Z,12.63
2024-02-08T04:27:32.872Z,12.68
2024-02-08T04:28:12.994Z,12.66
2024-02-08T04:28:53.417Z,12.57
2024-02-08T04:29:33.408Z,12.50
2024-02-08T04:30:13.648Z,12.54
2024-02-08T04:30:53.876Z,12.54
2024-02-08T04:31:34.382Z,12.61
2024-02-08T04:32:14.852Z,12.61
2024-02-08T04:32:55.331Z,12.63
2024-02-08T04:33:35.892Z,12.67
2024-02-08T04:34:16.191Z,12.68
2024-02-08T04:34:58.210Z,12.58
2024-02-08T04:35:38.369Z,12.59
2024-02-08T04:36:18.348Z,12.61
2024-02-08T04:36:58.676Z,12.64
2024-02-08T04:37:38.758Z,12.68
2024-02-08T04:38:20.805Z,12.64
2024-02-08T04:39:00.954Z,12.63
2024-02-08T04:39:41.308Z,12.60
2024-02-08T04:40:21.640Z,12.62
2024-02-08T04:41:03.182Z,12.61
2024-02-08T04:41:43.630Z,12.60
2024-02-08T04:42:29.541Z,12.63
2024-02-08T04:43:17.303Z,12.67
2024-02-08T04:44:07.128Z,12.61
2024-02-08T04:44:58.567Z,12.64
2024-02-08T04:45:48.542Z,12.57
2024-02-08T04:46:38.833Z,12.62
2024-02-08T04:47:40.043Z,12.65
2024-02-08T04:48:25.690Z,12.66
2024-02-08T04:49:12.164Z,12.69
2024-02-08T04:49:59.446Z,12.72
2024-02-08T04:50:39.464Z,12.73
2024-02-08T04:51:19.881Z,12.75
2024-02-08T04:52:03.570Z,12.66
2024-02-08T04:52:43.717Z,12.68
2024-02-08T04:53:25.121Z,12.42
2024-02-08T04:53:47.756Z,12.48
2024-02-08T04:54:10.651Z,12.42
2024-02-08T04:54:33.456Z,12.44
2024-02-08T04:54:55.304Z,12.41
2024-02-08T04:55:17.008Z,12.43
2024-02-08T04:55:38.630Z,12.42
2024-02-08T04:56:01.295Z,12.42
2024-02-08T04:56:23.001Z,12.43
2024-02-08T04:56:47.875Z,12.43
2024-02-08T04:57:10.707Z,12.37
2024-02-08T04:57:32.416Z,12.42
2024-02-08T04:58:19.077Z,12.42
2024-02-08T04:59:05.577Z,12.34
2024-02-08T04:59:24.195Z,12.42
2024-02-08T04:59:46.495Z,12.44
2024-02-08T05:00:14.001Z,12.46
2024-02-08T05:00:37.290Z,12.48
2024-02-08T05:01:04.688Z,12.48
2024-02-08T05:01:33.070Z,12.54
2024-02-08T05:01:59.040Z,12.54
2024-02-08T05:02:29.692Z,12.57
2024-02-08T05:02:56.282Z,12.49
2024-02-08T05:03:20.806Z,12.46
2024-02-08T05:03:44.390Z,12.44
2024-02-08T05:04:06.299Z,12.44
2024-02-08T05:04:28.054Z,12.44
2024-02-08T05:04:50.245Z,12.22
2024-02-08T05:05:12.884Z,12.23
2024-02-08T05:05:35.957Z,12.20
2024-02-08T05:05:58.300Z,12.23
2024-02-08T05:06:22.938Z,12.25
2024-02-08T05:06:46.346Z,12.30
2024-02-08T05:07:08.392Z,12.18
2024-02-08T05:07:30.122Z,12.36
2024-02-08T05:07:52.760Z,12.39
2024-02-08T05:08:16.917Z,12.41
2024-02-08T05:08:44.135Z,12.45
2024-02-08T05:09:05.752Z,12.44
2024-02-08T05:09:28.405Z,12.50
2024-02-08T05:09:50.059Z,12.39
2024-02-08T05:10:12.090Z,12.41
2024-02-08T05:10:34.017Z,12.27
2024-02-08T05:10:56.715Z,12.47
2024-02-08T05:11:18.458Z,12.47
2024-02-08T05:11:40.694Z,12.43
2024-02-08T05:12:06.446Z,12.42
2024-02-08T05:12:30.504Z,12.46
2024-02-08T05:12:53.641Z,12.46
2024-02-08T05:13:15.702Z,12.49
2024-02-08T05:13:40.739Z,12.53
2024-02-08T05:14:02.757Z,12.55
2024-02-08T05:14:24.532Z,12.57
2024-02-08T05:14:47.107Z,12.58
2024-02-08T05:15:14.128Z,12.61
2024-02-08T05:15:35.810Z,12.65
2024-02-08T05:15:57.710Z,12.52
2024-02-08T05:16:20.222Z,12.66
2024-02-08T05:16:43.423Z,12.68
2024-02-08T05:17:09.686Z,12.69
2024-02-08T05:17:31.457Z,12.73
2024-02-08T05:17:55.493Z,12.74
2024-02-08T05:18:17.261Z,12.76
2024-02-08T05:18:38.948Z,12.73
2024-02-08T05:19:01.655Z,12.70
2024-02-08T05:19:24.623Z,12.71
2024-02-08T05:19:46.589Z,12.71
2024-02-08T05:20:12.750Z,12.69
2024-02-08T05:20:37.167Z,12.69
2024-02-08T05:21:00.968Z,12.69
2024-02-08T05:21:23.895Z,12.67
2024-02-08T05:21:45.532Z,12.65
2024-02-08T05:22:07.184Z,12.58
2024-02-08T05:22:33.972Z,12.57
2024-02-08T05:22:57.995Z,12.51
2024-02-08T05:23:20.998Z,12.55
2024-02-08T05:23:43.639Z,12.48
2024-02-08T05:24:05.693Z,12.46